Time;durP1;ratioP1;P1;durP2;ratioP2;P2;SDS_P1;SDS_P2;PMS_P1;PMS_P2;Temp;Humidity;BMP_temperature;BMP_pressure;BME280_temperature;BME280_humidity;BME280_pressure;Samples;Min_cycle;Max_cycle;Signal;HPM_P1;HPM_P2
2022/04/29 00:02:08;;;;;;;8.30;5.30;;;;;;;;;;5022774;28;20328;-75
2022/04/29 00:04:38;;;;;;;9.15;5.93;;;;;;;;;;5021328;28;20029;-76
2022/04/29 00:07:06;;;;;;;12.25;6.10;;;;;;;;;;5021508;28;20034;-75
2022/04/29 00:09:31;;;;;;;8.93;6.38;;;;;;;;;;5021704;28;20532;-76
2022/04/29 00:11:56;;;;;;;6.97;5.63;;;;;;;;;;5021302;28;20032;-75
2022/04/29 00:14:23;;;;;;;10.70;6.05;;;;;;;;;;5019627;28;20056;-75
2022/04/29 00:16:49;;;;;;;9.77;6.30;;;;;;;;;;5023270;28;20021;-75
2022/04/29 00:19:16;;;;;;;11.73;6.07;;;;;;;;;;5022728;28;20407;-75
2022/04/29 00:21:41;;;;;;;11.52;6.78;;;;;;;;;;5004414;28;20171;-75
2022/04/29 00:24:07;;;;;;;13.77;7.53;;;;;;;;;;5023297;28;20021;-75
2022/04/29 00:26:32;;;;;;;10.85;7.00;;;;;;;;;;5021178;28;20082;-75
2022/04/29 00:28:57;;;;;;;10.05;6.20;;;;;;;;;;5022535;28;20028;-76
2022/04/29 00:31:23;;;;;;;12.38;6.93;;;;;;;;;;5019705;28;20025;-76
2022/04/29 00:33:48;;;;;;;10.65;6.53;;;;;;;;;;5023921;28;20052;-76
2022/04/29 00:36:14;;;;;;;10.95;6.90;;;;;;;;;;5018776;28;20025;-76
2022/04/29 00:38:39;;;;;;;11.23;6.03;;;;;;;;;;5021104;28;20041;-77
2022/04/29 00:41:05;;;;;;;12.05;6.30;;;;;;;;;;5023870;28;20049;-76
2022/04/29 00:43:30;;;;;;;10.43;6.80;;;;;;;;;;5024702;28;20030;-75
2022/04/29 00:45:55;;;;;;;10.30;5.82;;;;;;;;;;5020799;28;20036;-75
2022/04/29 00:48:20;;;;;;;10.77;6.38;;;;;;;;;;5012911;28;20028;-75
2022/04/29 00:50:46;;;;;;;13.73;6.47;;;;;;;;;;5022239;28;20038;-76
2022/04/29 00:53:12;;;;;;;9.52;6.85;;;;;;;;;;5025562;28;20032;-77
2022/04/29 00:55:38;;;;;;;15.00;6.75;;;;;;;;;;5019851;28;20029;-76
2022/04/29 00:58:16;;;;;;;12.27;6.43;;;;;;;;;;5025132;28;20017;-76
2022/04/29 01:00:42;;;;;;;13.05;6.53;;;;;;;;;;5000246;28;20464;-77
2022/04/29 01:03:10;;;;;;;11.00;7.00;;;;;;;;;;5024813;28;20032;-76
2022/04/29 01:05:37;;;;;;;10.93;6.80;;;;;;;;;;5019113;28;20029;-75
2022/04/29 01:08:02;;;;;;;8.48;7.20;;;;;;;;;;5023815;28;20131;-77
2022/04/29 01:10:27;;;;;;;11.02;7.57;;;;;;;;;;5018492;28;20121;-75
2022/04/29 01:12:57;;;;;;;14.93;7.43;;;;;;;;;;5021829;28;20030;-75
2022/04/29 01:15:22;;;;;;;10.63;6.70;;;;;;;;;;5017244;28;20108;-75
2022/04/29 01:17:48;;;;;;;9.00;6.93;;;;;;;;;;5023594;28;20116;-77
2022/04/29 01:20:15;;;;;;;11.55;7.10;;;;;;;;;;5020183;28;20073;-76
2022/04/29 01:22:41;;;;;;;10.38;7.28;;;;;;;;;;5021038;28;20060;-75
2022/04/29 01:25:07;;;;;;;11.90;7.30;;;;;;;;;;5020265;28;20341;-77
2022/04/29 01:27:32;;;;;;;13.65;7.93;;;;;;;;;;5020462;28;20022;-76
2022/04/29 01:30:00;;;;;;;12.27;7.40;;;;;;;;;;5020301;28;20025;-74
2022/04/29 01:32:26;;;;;;;9.90;7.00;;;;;;;;;;5020146;28;20073;-75
2022/04/29 01:34:52;;;;;;;9.95;7.40;;;;;;;;;;5020739;28;20017;-75
2022/04/29 01:37:21;;;;;;;12.43;7.35;;;;;;;;;;5021287;28;20079;-75
2022/04/29 01:39:47;;;;;;;12.90;7.05;;;;;;;;;;5003900;28;20036;-76
2022/04/29 01:42:12;;;;;;;14.45;8.00;;;;;;;;;;5019502;28;20029;-76
2022/04/29 01:44:37;;;;;;;9.10;7.30;;;;;;;;;;5017020;28;20033;-76
2022/04/29 01:47:03;;;;;;;9.25;6.80;;;;;;;;;;5021421;28;20164;-76
2022/04/29 01:49:28;;;;;;;10.45;6.93;;;;;;;;;;5021788;28;20029;-76
2022/04/29 01:51:56;;;;;;;10.98;6.97;;;;;;;;;;5001500;28;20371;-76
2022/04/29 01:54:22;;;;;;;16.70;7.13;;;;;;;;;;5020849;28;20425;-75
2022/04/29 01:56:49;;;;;;;10.93;6.20;;;;;;;;;;5002616;28;20024;-76
2022/04/29 01:59:15;;;;;;;11.55;6.63;;;;;;;;;;5003400;28;20029;-76
2022/04/29 02:01:40;;;;;;;12.68;6.60;;;;;;;;;;5021919;28;20440;-75
2022/04/29 02:04:05;;;;;;;11.38;6.43;;;;;;;;;;5021175;28;20031;-76
2022/04/29 02:06:31;;;;;;;9.90;6.32;;;;;;;;;;5001869;28;20083;-76
2022/04/29 02:08:56;;;;;;;13.85;6.65;;;;;;;;;;5020578;28;20030;-76
2022/04/29 02:11:22;;;;;;;13.45;6.10;;;;;;;;;;5022126;28;20472;-76
2022/04/29 02:13:47;;;;;;;12.82;5.93;;;;;;;;;;5023911;28;20337;-76
2022/04/29 02:16:13;;;;;;;10.07;6.45;;;;;;;;;;5025211;28;20075;-77
2022/04/29 02:18:40;;;;;;;13.23;7.20;;;;;;;;;;5025302;28;20436;-75
2022/04/29 02:21:05;;;;;;;12.82;6.95;;;;;;;;;;5023673;28;20039;-75
2022/04/29 02:23:30;;;;;;;13.75;6.53;;;;;;;;;;5027419;28;20395;-76
2022/04/29 02:25:59;;;;;;;10.50;6.57;;;;;;;;;;5025411;28;20029;-76
2022/04/29 02:28:25;;;;;;;12.35;6.78;;;;;;;;;;5025232;28;20121;-76
2022/04/29 02:30:50;;;;;;;7.97;5.93;;;;;;;;;;5021448;28;20045;-76
2022/04/29 02:33:16;;;;;;;12.35;6.53;;;;;;;;;;5028609;28;20044;-76
2022/04/29 02:35:41;;;;;;;9.80;5.75;;;;;;;;;;5023115;28;20033;-77
2022/04/29 02:38:06;;;;;;;10.88;6.20;;;;;;;;;;5027367;28;20048;-77
2022/04/29 02:40:31;;;;;;;11.77;6.35;;;;;;;;;;5020684;28;20095;-75
2022/04/29 02:42:57;;;;;;;11.27;5.78;;;;;;;;;;5025606;28;20055;-77
2022/04/29 02:45:23;;;;;;;13.05;6.60;;;;;;;;;;5023493;28;20037;-76
2022/04/29 02:47:49;;;;;;;10.18;6.47;;;;;;;;;;5008831;28;20333;-75
2022/04/29 02:50:14;;;;;;;11.85;6.13;;;;;;;;;;5022158;28;20100;-76
2022/04/29 02:52:40;;;;;;;10.40;5.30;;;;;;;;;;5023944;28;20057;-76
2022/04/29 02:55:05;;;;;;;10.25;5.82;;;;;;;;;;5023828;28;20032;-76
2022/04/29 02:57:31;;;;;;;7.10;5.78;;;;;;;;;;5030978;28;20144;-77
2022/04/29 02:59:56;;;;;;;10.38;6.07;;;;;;;;;;5018212;28;20199;-75
2022/04/29 03:02:22;;;;;;;10.70;6.25;;;;;;;;;;5038598;28;20021;-76
2022/04/29 03:04:47;;;;;;;11.73;6.30;;;;;;;;;;5024201;28;20119;-76
2022/04/29 03:07:12;;;;;;;11.93;6.07;;;;;;;;;;5008318;28;20074;-77
2022/04/29 03:09:38;;;;;;;9.45;6.10;;;;;;;;;;5020521;28;20131;-75
2022/04/29 03:12:04;;;;;;;9.50;6.40;;;;;;;;;;5006094;28;20025;-76
2022/04/29 03:14:30;;;;;;;12.10;6.32;;;;;;;;;;5020799;28;20420;-75
2022/04/29 03:16:55;;;;;;;10.52;6.07;;;;;;;;;;5021966;28;20135;-76
2022/04/29 03:19:20;;;;;;;15.50;6.07;;;;;;;;;;5020354;28;20122;-75
2022/04/29 03:21:46;;;;;;;12.93;5.70;;;;;;;;;;5018868;28;20758;-75
2022/04/29 03:24:11;;;;;;;12.98;6.97;;;;;;;;;;5022204;28;20036;-76
2022/04/29 03:26:37;;;;;;;10.90;6.40;;;;;;;;;;5019262;28;20026;-75
2022/04/29 03:29:03;;;;;;;9.77;5.90;;;;;;;;;;5022062;28;20030;-77
2022/04/29 03:31:29;;;;;;;12.02;5.70;;;;;;;;;;5004696;28;20112;-75
2022/04/29 03:33:55;;;;;;;12.65;5.55;;;;;;;;;;5020533;28;20099;-75
2022/04/29 03:36:23;;;;;;;11.13;6.10;;;;;;;;;;5020131;28;20368;-75
2022/04/29 03:38:48;;;;;;;11.32;6.22;;;;;;;;;;5026516;28;20459;-77
2022/04/29 03:41:14;;;;;;;11.38;6.05;;;;;;;;;;5027251;28;20101;-76
2022/04/29 03:43:49;;;;;;;10.02;6.20;;;;;;;;;;5018929;28;20268;-75
2022/04/29 03:46:14;;;;;;;11.80;5.90;;;;;;;;;;5019235;28;20021;-75
2022/04/29 03:51:23;;;;;;;10.52;5.72;;;;;;;;;;5021235;28;20398;-75
2022/04/29 03:53:48;;;;;;;14.82;6.53;;;;;;;;;;5021755;28;20404;-76
2022/04/29 03:56:15;;;;;;;9.93;6.03;;;;;;;;;;5002396;28;20025;-75
2022/04/29 03:58:40;;;;;;;12.55;6.20;;;;;;;;;;5020741;28;20554;-75
2022/04/29 04:01:05;;;;;;;11.52;6.15;;;;;;;;;;5024116;28;20026;-76
2022/04/29 04:03:34;;;;;;;10.35;6.25;;;;;;;;;;5023761;28;20045;-75
2022/04/29 04:08:43;;;;;;;9.73;6.25;;;;;;;;;;5021832;28;20029;-75
2022/04/29 04:11:09;;;;;;;13.40;6.05;;;;;;;;;;5003235;28;20038;-75
2022/04/29 04:13:34;;;;;;;8.93;5.68;;;;;;;;;;5021026;28;20053;-76
2022/04/29 04:16:00;;;;;;;9.65;5.70;;;;;;;;;;5002011;28;20120;-75
2022/04/29 04:18:25;;;;;;;8.32;5.65;;;;;;;;;;4973151;28;1400701;-75
2022/04/29 04:20:50;;;;;;;14.45;5.82;;;;;;;;;;5002522;28;20477;-75
2022/04/29 04:23:15;;;;;;;10.73;6.03;;;;;;;;;;5023605;28;20034;-75
2022/04/29 04:25:41;;;;;;;8.40;5.20;;;;;;;;;;5017525;28;20025;-76
2022/04/29 04:28:06;;;;;;;11.85;5.43;;;;;;;;;;5022775;28;20467;-78
2022/04/29 04:30:32;;;;;;;10.48;5.68;;;;;;;;;;5021040;28;20400;-75
2022/04/29 04:32:57;;;;;;;10.98;5.88;;;;;;;;;;5018663;28;20436;-76
2022/04/29 04:35:22;;;;;;;11.55;5.28;;;;;;;;;;5018925;28;21126;-75
2022/04/29 04:37:48;;;;;;;11.23;5.85;;;;;;;;;;5021268;28;20125;-75
2022/04/29 04:40:24;;;;;;;12.32;5.82;;;;;;;;;;5003213;28;20057;-75
2022/04/29 04:42:49;;;;;;;10.90;5.78;;;;;;;;;;5022466;28;20518;-74
2022/04/29 04:45:14;;;;;;;10.23;5.30;;;;;;;;;;5019097;28;20030;-76
2022/04/29 04:47:40;;;;;;;8.00;5.40;;;;;;;;;;5022618;28;20130;-76
2022/04/29 04:50:06;;;;;;;8.48;5.72;;;;;;;;;;5021979;28;20061;-77
2022/04/29 04:52:31;;;;;;;12.45;5.70;;;;;;;;;;5024502;28;20010;-75
2022/04/29 04:54:56;;;;;;;12.75;5.75;;;;;;;;;;5022290;28;20033;-75
2022/04/29 04:57:21;;;;;;;10.98;5.63;;;;;;;;;;5022136;28;20029;-76
2022/04/29 04:59:47;;;;;;;11.38;5.55;;;;;;;;;;5021820;28;20404;-76
2022/04/29 05:02:12;;;;;;;12.35;5.88;;;;;;;;;;5021332;28;20021;-75
2022/04/29 05:04:38;;;;;;;10.20;5.65;;;;;;;;;;5027848;28;20061;-75
2022/04/29 05:07:04;;;;;;;10.45;5.82;;;;;;;;;;5033169;28;20022;-76
2022/04/29 05:09:29;;;;;;;12.73;5.97;;;;;;;;;;5035592;28;20057;-74
2022/04/29 05:11:55;;;;;;;9.63;5.32;;;;;;;;;;5020165;28;20174;-75
2022/04/29 05:14:20;;;;;;;9.68;5.45;;;;;;;;;;5022673;28;20494;-76
2022/04/29 05:16:46;;;;;;;11.55;4.82;;;;;;;;;;5021849;28;20025;-75
2022/04/29 05:19:11;;;;;;;11.32;5.90;;;;;;;;;;5023819;28;20061;-76
2022/04/29 05:21:38;;;;;;;13.00;5.45;;;;;;;;;;5021559;28;20544;-75
2022/04/29 05:24:03;;;;;;;9.43;5.15;;;;;;;;;;5005483;28;20032;-75
2022/04/29 05:26:28;;;;;;;9.18;5.45;;;;;;;;;;5019424;28;20453;-76
2022/04/29 05:28:53;;;;;;;11.85;5.22;;;;;;;;;;5020569;28;20053;-77
2022/04/29 05:31:19;;;;;;;10.18;5.22;;;;;;;;;;5022734;28;20111;-75
2022/04/29 05:33:45;;;;;;;13.48;5.32;;;;;;;;;;5023436;28;20151;-76
2022/04/29 05:36:11;;;;;;;9.73;5.57;;;;;;;;;;5023826;28;20025;-76
2022/04/29 05:44:07;;;;;;;9.77;5.10;;;;;;;;;;5023741;28;20420;-77
2022/04/29 05:46:35;;;;;;;13.23;4.97;;;;;;;;;;5022680;28;20010;-76
2022/04/29 05:49:00;;;;;;;10.43;4.78;;;;;;;;;;5022161;28;20060;-76
2022/04/29 05:51:25;;;;;;;11.07;4.95;;;;;;;;;;5021189;28;20053;-76
2022/04/29 05:53:50;;;;;;;11.35;5.00;;;;;;;;;;5021784;28;20468;-75
2022/04/29 05:56:16;;;;;;;12.82;5.10;;;;;;;;;;5020494;28;20069;-76
2022/04/29 05:58:43;;;;;;;10.25;4.72;;;;;;;;;;5022589;28;20044;-75
2022/04/29 06:01:08;;;;;;;15.45;5.05;;;;;;;;;;5022910;28;20045;-76
2022/04/29 06:03:33;;;;;;;9.50;5.18;;;;;;;;;;5023244;28;20455;-77
2022/04/29 06:05:59;;;;;;;11.45;4.55;;;;;;;;;;5021270;28;20535;-76
2022/04/29 06:08:24;;;;;;;10.32;5.07;;;;;;;;;;5005765;28;20034;-76
2022/04/29 06:10:49;;;;;;;10.70;4.95;;;;;;;;;;5020684;28;20025;-77
2022/04/29 06:13:14;;;;;;;9.70;4.65;;;;;;;;;;5022558;28;20026;-76
2022/04/29 06:15:41;;;;;;;10.10;4.60;;;;;;;;;;5022769;28;20242;-75
2022/04/29 06:18:07;;;;;;;12.70;4.97;;;;;;;;;;5006224;28;20335;-77
2022/04/29 06:20:32;;;;;;;12.00;4.85;;;;;;;;;;5021596;28;20034;-77
2022/04/29 06:22:57;;;;;;;10.57;6.28;;;;;;;;;;5024439;28;20076;-76
2022/04/29 06:25:22;;;;;;;12.52;5.20;;;;;;;;;;5020365;28;20087;-75
2022/04/29 06:27:48;;;;;;;8.95;4.78;;;;;;;;;;5022954;28;20025;-75
2022/04/29 06:30:13;;;;;;;12.52;5.60;;;;;;;;;;5022470;28;20373;-75
2022/04/29 06:32:39;;;;;;;12.15;5.40;;;;;;;;;;5024443;28;20038;-76
2022/04/29 06:35:06;;;;;;;8.07;4.78;;;;;;;;;;5018573;28;20144;-76
2022/04/29 06:37:31;;;;;;;14.52;5.30;;;;;;;;;;5024607;28;20099;-77
2022/04/29 06:39:57;;;;;;;10.13;5.38;;;;;;;;;;5020541;28;20452;-76
2022/04/29 06:42:22;;;;;;;10.85;5.72;;;;;;;;;;5019015;28;20477;-76
2022/04/29 06:44:48;;;;;;;11.27;5.40;;;;;;;;;;5019808;28;20084;-74
2022/04/29 06:47:13;;;;;;;11.18;5.80;;;;;;;;;;5005621;28;20024;-76
2022/04/29 06:49:43;;;;;;;7.88;5.28;;;;;;;;;;5020318;28;20029;-74
2022/04/29 06:52:09;;;;;;;11.65;5.10;;;;;;;;;;5003609;28;20407;-75
2022/04/29 06:54:35;;;;;;;12.85;5.43;;;;;;;;;;5021475;28;20044;-77
2022/04/29 06:57:00;;;;;;;9.73;5.32;;;;;;;;;;5017928;28;20048;-76
2022/04/29 06:59:26;;;;;;;12.52;4.97;;;;;;;;;;5024541;28;20498;-75
2022/04/29 07:01:52;;;;;;;10.90;5.88;;;;;;;;;;5022316;28;20033;-76
2022/04/29 07:04:17;;;;;;;13.85;5.57;;;;;;;;;;5025784;28;20036;-77
2022/04/29 07:06:42;;;;;;;10.70;5.32;;;;;;;;;;5007191;28;20021;-76
2022/04/29 07:09:08;;;;;;;9.23;5.38;;;;;;;;;;5023592;28;20028;-76
2022/04/29 07:11:33;;;;;;;11.45;5.47;;;;;;;;;;5033919;28;20031;-76
2022/04/29 07:13:58;;;;;;;12.02;6.13;;;;;;;;;;5035377;28;20026;-76
2022/04/29 07:16:24;;;;;;;12.52;5.47;;;;;;;;;;5032670;28;20041;-76
2022/04/29 07:18:49;;;;;;;15.25;6.00;;;;;;;;;;5025694;28;20067;-76
2022/04/29 07:21:14;;;;;;;11.52;5.82;;;;;;;;;;5006957;28;20384;-77
2022/04/29 07:23:40;;;;;;;12.55;5.22;;;;;;;;;;5025316;28;20100;-75
2022/04/29 07:26:05;;;;;;;12.50;5.60;;;;;;;;;;5005619;28;20045;-76
2022/04/29 07:28:30;;;;;;;11.13;5.45;;;;;;;;;;5009469;28;20053;-77
2022/04/29 07:30:57;;;;;;;11.75;5.20;;;;;;;;;;5022620;28;20443;-75
2022/04/29 07:33:22;;;;;;;12.73;5.45;;;;;;;;;;5027058;28;20042;-76
2022/04/29 07:44:04;;;;;;;14.10;5.90;;;;;;;;;;5022345;28;20040;-77
2022/04/29 07:46:29;;;;;;;11.18;5.53;;;;;;;;;;5024389;28;20041;-76
2022/04/29 07:48:54;;;;;;;11.90;5.50;;;;;;;;;;5022365;28;20021;-77
2022/04/29 07:51:23;;;;;;;12.65;5.72;;;;;;;;;;5024780;28;20423;-76
2022/04/29 07:53:54;;;;;;;9.48;5.20;;;;;;;;;;5028418;28;20029;-77
2022/04/29 07:56:19;;;;;;;13.50;6.03;;;;;;;;;;5023692;28;20022;-76
2022/04/29 07:58:45;;;;;;;11.18;5.22;;;;;;;;;;5023061;28;20035;-77
2022/04/29 08:01:10;;;;;;;12.35;5.05;;;;;;;;;;5005109;28;20144;-77
2022/04/29 08:03:37;;;;;;;10.70;5.38;;;;;;;;;;5026112;28;20100;-77
2022/04/29 08:06:06;;;;;;;10.85;5.22;;;;;;;;;;5002231;28;20033;-77
2022/04/29 08:08:32;;;;;;;10.10;5.38;;;;;;;;;;5023653;28;20026;-75
2022/04/29 08:10:57;;;;;;;11.90;5.47;;;;;;;;;;5018273;28;20018;-76
2022/04/29 08:13:24;;;;;;;8.85;5.13;;;;;;;;;;5022945;28;20026;-77
2022/04/29 08:15:55;;;;;;;11.15;5.25;;;;;;;;;;5021803;28;20075;-75
2022/04/29 08:18:20;;;;;;;11.77;5.78;;;;;;;;;;5025464;28;20511;-76
2022/04/29 08:20:46;;;;;;;7.53;4.72;;;;;;;;;;5003730;28;20025;-75
2022/04/29 08:23:11;;;;;;;9.82;5.47;;;;;;;;;;5022249;28;20167;-75
2022/04/29 08:25:37;;;;;;;12.35;5.43;;;;;;;;;;5020358;28;20450;-76
2022/04/29 08:28:03;;;;;;;11.65;5.22;;;;;;;;;;5023420;28;20100;-76
2022/04/29 08:30:30;;;;;;;9.73;5.35;;;;;;;;;;5002894;28;20523;-76
2022/04/29 08:32:56;;;;;;;9.82;6.20;;;;;;;;;;5023549;28;20083;-76
2022/04/29 08:35:21;;;;;;;10.10;6.03;;;;;;;;;;5001625;28;20029;-76
2022/04/29 08:37:46;;;;;;;8.95;5.90;;;;;;;;;;5024827;28;20036;-74
2022/04/29 08:40:12;;;;;;;9.02;6.35;;;;;;;;;;5018100;28;20423;-74
2022/04/29 08:42:38;;;;;;;11.90;6.38;;;;;;;;;;5004737;28;20080;-75
2022/04/29 08:45:22;;;;;;;14.90;7.40;;;;;;;;;;5018570;28;20301;-74
2022/04/29 08:47:47;;;;;;;13.30;6.78;;;;;;;;;;5024570;28;20384;-75
2022/04/29 08:50:16;;;;;;;12.85;6.72;;;;;;;;;;5022634;28;20023;-74
2022/04/29 08:52:42;;;;;;;14.20;6.78;;;;;;;;;;5024627;28;20459;-74
2022/04/29 09:00:44;;;;;;;12.02;6.80;;;;;;;;;;5018768;28;20040;-75
2022/04/29 09:03:14;;;;;;;11.82;6.28;;;;;;;;;;5020668;28;20013;-74
2022/04/29 09:05:39;;;;;;;11.73;6.13;;;;;;;;;;5019577;28;20047;-76
2022/04/29 09:08:05;;;;;;;10.00;5.75;;;;;;;;;;5021967;28;20680;-75
2022/04/29 09:10:34;;;;;;;11.40;7.00;;;;;;;;;;5021538;28;20353;-75
2022/04/29 09:13:16;;;;;;;7.82;5.70;;;;;;;;;;5022316;28;20099;-74
2022/04/29 09:15:47;;;;;;;6.60;5.85;;;;;;;;;;5020178;28;20079;-75
2022/04/29 09:18:13;;;;;;;8.38;6.60;;;;;;;;;;5024339;28;20040;-76
2022/04/29 09:20:39;;;;;;;9.75;5.38;;;;;;;;;;5032646;28;20025;-76
2022/04/29 09:23:04;;;;;;;10.10;5.68;;;;;;;;;;5034899;28;20026;-74
2022/04/29 09:25:34;;;;;;;8.68;5.45;;;;;;;;;;5031480;28;20033;-74
2022/04/29 09:28:01;;;;;;;10.40;5.90;;;;;;;;;;5023092;28;20083;-74
2022/04/29 09:30:32;;;;;;;8.93;5.22;;;;;;;;;;5019242;28;20022;-73
2022/04/29 09:32:58;;;;;;;8.00;5.40;;;;;;;;;;5022380;28;20480;-73
2022/04/29 09:35:34;;;;;;;7.18;4.85;;;;;;;;;;5020097;28;20481;-76
2022/04/29 09:40:46;;;;;;;6.30;5.03;;;;;;;;;;5021125;28;20496;-75
2022/04/29 09:43:11;;;;;;;7.88;4.95;;;;;;;;;;5022442;28;20425;-75
2022/04/29 09:45:36;;;;;;;18.95;5.70;;;;;;;;;;5019861;28;20423;-74
2022/04/29 09:48:01;;;;;;;9.00;5.40;;;;;;;;;;5022812;28;20076;-75
2022/04/29 09:50:46;;;;;;;12.40;5.95;;;;;;;;;;5002295;28;20025;-75
2022/04/29 09:53:15;;;;;;;11.10;5.90;;;;;;;;;;5020404;28;20017;-76
2022/04/29 09:55:41;;;;;;;10.00;5.85;;;;;;;;;;5019641;28;20033;-74
2022/04/29 09:58:09;;;;;;;9.68;6.22;;;;;;;;;;5019866;28;20033;-77
2022/04/29 10:00:34;;;;;;;9.55;5.50;;;;;;;;;;5017651;28;20032;-74
2022/04/29 10:03:03;;;;;;;12.82;6.00;;;;;;;;;;5023093;28;20484;-74
2022/04/29 10:05:29;;;;;;;12.00;6.07;;;;;;;;;;5001731;28;20798;-75
2022/04/29 10:07:56;;;;;;;11.63;6.25;;;;;;;;;;5023406;28;20043;-74
2022/04/29 10:10:24;;;;;;;9.27;5.65;;;;;;;;;;5018936;28;20306;-75
2022/04/29 10:12:49;;;;;;;7.57;5.35;;;;;;;;;;5021861;28;20026;-75
2022/04/29 10:15:17;;;;;;;8.32;5.72;;;;;;;;;;5016554;28;20022;-76
2022/04/29 10:23:11;;;;;;;9.80;6.22;;;;;;;;;;5021902;28;20045;-72
2022/04/29 10:25:41;;;;;;;8.38;5.88;;;;;;;;;;5018399;28;20288;-73
2022/04/29 10:28:08;;;;;;;9.65;5.55;;;;;;;;;;5021741;28;20206;-74
2022/04/29 10:30:34;;;;;;;8.40;5.47;;;;;;;;;;5019933;28;20033;-73
2022/04/29 10:33:10;;;;;;;10.90;5.97;;;;;;;;;;5024566;28;20051;-74
2022/04/29 10:35:47;;;;;;;10.85;6.15;;;;;;;;;;5023464;28;20022;-75
2022/04/29 10:38:12;;;;;;;12.90;6.20;;;;;;;;;;5024498;28;20029;-74
2022/04/29 10:40:38;;;;;;;9.18;5.50;;;;;;;;;;5022088;28;20306;-74
2022/04/29 10:43:07;;;;;;;8.18;6.03;;;;;;;;;;5025938;28;20022;-72
2022/04/29 10:45:32;;;;;;;8.05;5.63;;;;;;;;;;5023255;28;20040;-74
2022/04/29 10:47:57;;;;;;;7.53;5.70;;;;;;;;;;5027669;28;20025;-73
2022/04/29 10:50:29;;;;;;;7.50;5.78;;;;;;;;;;5022687;28;20570;-74
2022/04/29 10:53:04;;;;;;;8.88;5.30;;;;;;;;;;5025116;28;20151;-72
2022/04/29 10:55:31;;;;;;;8.95;5.60;;;;;;;;;;5022168;28;20386;-73
2022/04/29 10:57:57;;;;;;;7.95;5.18;;;;;;;;;;5025148;28;20024;-74
2022/04/29 11:00:23;;;;;;;10.02;5.68;;;;;;;;;;5019738;28;20540;-74
2022/04/29 11:02:48;;;;;;;6.10;4.88;;;;;;;;;;5026635;28;20474;-74
2022/04/29 11:05:34;;;;;;;10.55;5.68;;;;;;;;;;5018517;28;20442;-74
2022/04/29 11:08:09;;;;;;;12.43;5.68;;;;;;;;;;5021971;28;20124;-73
2022/04/29 11:11:04;;;;;;;8.65;5.97;;;;;;;;;;5023262;28;20218;-73
2022/04/29 11:13:33;;;;;;;10.15;5.88;;;;;;;;;;5020669;28;20033;-74
2022/04/29 11:16:08;;;;;;;6.53;5.32;;;;;;;;;;5023415;28;20333;-74
2022/04/29 11:18:34;;;;;;;6.65;4.70;;;;;;;;;;5025700;28;20080;-72
2022/04/29 11:24:40;;;;;;;11.38;5.10;;;;;;;;;;5020200;28;20511;-74
2022/04/29 11:26:41;;;;;;;8.32;5.45;;;;;;;;;;5022163;28;20103;-72
2022/04/29 11:29:11;;;;;;;6.07;4.97;;;;;;;;;;5023636;28;20127;-74
2022/04/29 11:31:37;;;;;;;8.90;5.22;;;;;;;;;;5034822;28;20040;-73
2022/04/29 11:34:13;;;;;;;9.77;5.95;;;;;;;;;;5033684;28;20029;-74
2022/04/29 11:36:38;;;;;;;8.07;5.15;;;;;;;;;;5025571;28;20500;-73
2022/04/29 11:39:11;;;;;;;9.65;5.80;;;;;;;;;;5026876;28;20067;-74
2022/04/29 11:41:36;;;;;;;6.00;4.63;;;;;;;;;;5021909;28;20045;-74
2022/04/29 11:44:03;;;;;;;7.38;4.97;;;;;;;;;;5027484;28;20068;-73
2022/04/29 11:46:29;;;;;;;9.63;4.90;;;;;;;;;;5022295;28;20100;-74
2022/04/29 11:48:58;;;;;;;9.80;5.15;;;;;;;;;;5008267;28;20068;-74
2022/04/29 11:51:24;;;;;;;9.32;5.05;;;;;;;;;;5018678;28;20019;-74
2022/04/29 11:54:03;;;;;;;7.55;5.45;;;;;;;;;;5024225;28;20032;-74
2022/04/29 11:56:32;;;;;;;11.90;6.40;;;;;;;;;;5016209;28;20428;-74
2022/04/29 11:58:58;;;;;;;12.65;6.80;;;;;;;;;;5023216;28;20032;-72
2022/04/29 12:01:25;;;;;;;10.98;6.68;;;;;;;;;;5021032;28;20029;-72
2022/04/29 12:03:52;;;;;;;9.95;6.53;;;;;;;;;;5023382;28;20025;-72
2022/04/29 12:06:17;;;;;;;9.25;7.00;;;;;;;;;;5019172;28;20092;-74
2022/04/29 12:08:42;;;;;;;10.70;6.80;;;;;;;;;;5024899;28;20049;-73
2022/04/29 12:11:08;;;;;;;9.38;7.15;;;;;;;;;;5021769;28;20450;-74
2022/04/29 12:13:36;;;;;;;8.68;6.93;;;;;;;;;;5005813;28;20022;-73
2022/04/29 12:16:02;;;;;;;8.93;7.45;;;;;;;;;;5019847;28;20034;-74
2022/04/29 12:18:41;;;;;;;8.10;6.60;;;;;;;;;;5023259;28;20056;-73
2022/04/29 12:21:09;;;;;;;9.35;7.40;;;;;;;;;;5020512;28;20121;-72
2022/04/29 12:23:34;;;;;;;10.10;7.50;;;;;;;;;;5022797;28;20022;-73
2022/04/29 12:26:01;;;;;;;8.32;7.20;;;;;;;;;;5022638;28;20037;-73
2022/04/29 12:28:35;;;;;;;8.30;7.40;;;;;;;;;;5021823;28;20484;-73
2022/04/29 12:36:46;;;;;;;9.70;7.45;;;;;;;;;;5026374;28;20065;-75
2022/04/29 12:39:12;;;;;;;8.73;6.82;;;;;;;;;;5023577;28;20064;-73
2022/04/29 12:41:38;;;;;;;9.52;7.50;;;;;;;;;;5022433;28;20068;-74
2022/04/29 12:44:11;;;;;;;8.13;7.00;;;;;;;;;;5023677;28;20060;-74
2022/04/29 12:46:36;;;;;;;;;;;;;;;;;;5023592;28;20120;-72
2022/04/29 12:49:01;;;;;;;9.63;6.97;;;;;;;;;;5025457;28;20016;-72
2022/04/29 12:51:33;;;;;;;8.27;7.10;;;;;;;;;;5020112;28;20258;-73
2022/04/29 12:54:00;;;;;;;7.90;7.10;;;;;;;;;;5019788;28;20021;-72
2022/04/29 12:56:29;;;;;;;10.73;7.85;;;;;;;;;;5021538;28;20033;-74
2022/04/29 12:58:55;;;;;;;11.65;7.50;;;;;;;;;;5022044;28;20139;-74
2022/04/29 13:01:20;;;;;;;8.90;7.38;;;;;;;;;;5021378;28;20071;-72
2022/04/29 13:04:04;;;;;;;9.80;7.35;;;;;;;;;;5007810;28;20025;-74
2022/04/29 13:06:29;;;;;;;12.50;7.55;;;;;;;;;;5021415;28;20372;-75
2022/04/29 13:08:55;;;;;;;9.07;7.45;;;;;;;;;;5025678;28;20361;-73
2022/04/29 13:11:21;;;;;;;8.02;7.22;;;;;;;;;;5021591;28;20480;-74
2022/04/29 13:13:47;;;;;;;8.25;7.47;;;;;;;;;;5005532;28;20030;-75
2022/04/29 13:16:13;;;;;;;10.43;6.95;;;;;;;;;;5019100;28;20021;-77
2022/04/29 13:18:39;;;;;;;8.40;6.90;;;;;;;;;;5023268;28;20061;-73
2022/04/29 13:21:08;;;;;;;10.20;7.57;;;;;;;;;;5020207;28;20166;-75
2022/04/29 13:23:37;;;;;;;11.05;7.32;;;;;;;;;;5021429;28;20090;-74
2022/04/29 13:26:05;;;;;;;8.57;6.82;;;;;;;;;;5023486;28;20029;-76
2022/04/29 13:28:31;;;;;;;8.18;7.35;;;;;;;;;;5020136;28;20022;-73
2022/04/29 13:30:57;;;;;;;8.20;6.75;;;;;;;;;;5021688;28;20021;-74
2022/04/29 13:33:22;;;;;;;8.60;6.80;;;;;;;;;;5018532;28;20029;-74
2022/04/29 13:35:47;;;;;;;8.52;7.07;;;;;;;;;;5018362;28;20511;-74
2022/04/29 13:38:22;;;;;;;11.30;7.07;;;;;;;;;;5021692;28;20028;-76
2022/04/29 13:40:48;;;;;;;7.97;6.22;;;;;;;;;;5024428;28;20018;-75
2022/04/29 13:43:14;;;;;;;8.18;6.88;;;;;;;;;;5028250;28;20565;-75
2022/04/29 13:45:40;;;;;;;7.22;6.47;;;;;;;;;;5009939;28;20025;-74
2022/04/29 13:48:06;;;;;;;8.80;6.63;;;;;;;;;;5028496;28;20047;-74
2022/04/29 13:50:31;;;;;;;10.90;6.22;;;;;;;;;;5021970;28;20113;-75
2022/04/29 13:53:12;;;;;;;7.55;6.07;;;;;;;;;;5023329;28;20068;-72
2022/04/29 13:55:50;;;;;;;10.35;7.00;;;;;;;;;;5020014;28;20033;-75
2022/04/29 13:58:16;;;;;;;7.95;6.63;;;;;;;;;;5020429;28;20448;-74
2022/04/29 14:00:43;;;;;;;10.15;6.30;;;;;;;;;;5018635;28;20076;-73
2022/04/29 14:03:08;;;;;;;9.20;6.72;;;;;;;;;;5022645;28;20060;-73
2022/04/29 14:05:34;;;;;;;8.70;6.75;;;;;;;;;;5017446;28;20775;-74
2022/04/29 14:07:59;;;;;;;7.57;6.35;;;;;;;;;;5025285;28;20055;-74
2022/04/29 14:10:24;;;;;;;9.82;7.28;;;;;;;;;;5024572;28;20025;-75
2022/04/29 14:12:50;;;;;;;9.98;6.95;;;;;;;;;;5024243;28;20036;-74
2022/04/29 14:15:16;;;;;;;8.18;7.10;;;;;;;;;;5006761;28;20112;-73
2022/04/29 14:17:42;;;;;;;8.15;7.28;;;;;;;;;;5008211;28;20472;-75
2022/04/29 14:20:08;;;;;;;10.40;7.45;;;;;;;;;;5023558;28;20067;-76
2022/04/29 14:22:34;;;;;;;8.80;7.43;;;;;;;;;;5009340;28;20036;-74
2022/04/29 14:25:01;;;;;;;10.82;8.07;;;;;;;;;;5026712;28;20025;-74
2022/04/29 14:27:27;;;;;;;9.68;8.02;;;;;;;;;;5029731;28;20022;-74
2022/04/29 14:29:52;;;;;;;10.93;8.05;;;;;;;;;;5027467;28;20029;-74
2022/04/29 14:32:19;;;;;;;10.05;8.05;;;;;;;;;;5028133;28;20025;-74
2022/04/29 14:34:48;;;;;;;9.20;7.88;;;;;;;;;;5009046;28;20031;-74
2022/04/29 14:37:13;;;;;;;9.63;7.57;;;;;;;;;;5010565;28;20400;-73
2022/04/29 14:39:38;;;;;;;9.38;7.60;;;;;;;;;;5027226;28;20034;-74
2022/04/29 14:42:04;;;;;;;9.48;7.47;;;;;;;;;;5031197;28;20029;-73
2022/04/29 14:44:29;;;;;;;8.93;7.93;;;;;;;;;;5014914;28;20051;-74
2022/04/29 14:46:55;;;;;;;9.35;7.38;;;;;;;;;;5026960;28;20029;-73
2022/04/29 14:49:22;;;;;;;9.38;7.75;;;;;;;;;;5028708;28;20030;-76
2022/04/29 14:51:48;;;;;;;9.23;7.97;;;;;;;;;;5024816;28;20018;-74
2022/04/29 14:54:13;;;;;;;7.93;7.13;;;;;;;;;;5026712;28;20037;-73
2022/04/29 14:56:40;;;;;;;10.32;7.60;;;;;;;;;;5030775;28;20080;-74
2022/04/29 14:59:06;;;;;;;8.50;7.68;;;;;;;;;;5026101;28;20549;-74
2022/04/29 15:01:31;;;;;;;8.82;7.45;;;;;;;;;;5023665;28;20087;-75
2022/04/29 15:03:56;;;;;;;10.80;7.72;;;;;;;;;;5027546;28;20029;-73
2022/04/29 15:06:25;;;;;;;10.45;8.18;;;;;;;;;;5022282;28;20064;-73
2022/04/29 15:15:34;;;;;;;9.80;7.80;;;;;;;;;;5023664;28;20021;-74
2022/04/29 15:17:15;;;;;;;10.57;7.95;;;;;;;;;;5025766;28;20514;-73
2022/04/29 15:19:41;;;;;;;9.00;8.10;;;;;;;;;;5022740;28;20812;-73
2022/04/29 15:22:07;;;;;;;11.90;7.75;;;;;;;;;;5023908;28;20017;-75